Time;durP1;ratioP1;P1;durP2;ratioP2;P2;SDS_P1;SDS_P2;PMS_P1;PMS_P2;Temp;Humidity;BMP_temperature;BMP_pressure;BME280_temperature;BME280_humidity;BME280_pressure;Samples;Min_cycle;Max_cycle;Signal;HPM_P1;HPM_P2
2021/03/26 00:02:02;;;;;;;15.13;8.93;;;4.80;84.70;;;;;;5002744;28;20068;-49
2021/03/26 00:04:29;;;;;;;15.63;11.00;;;4.80;84.30;;;;;;5003189;28;20054;-48
2021/03/26 00:07:02;;;;;;;18.83;10.25;;;4.80;84.50;;;;;;5004541;28;20061;-50
2021/03/26 00:09:31;;;;;;;16.77;9.90;;;4.80;84.30;;;;;;5001739;28;22361;-53
2021/03/26 00:12:00;;;;;;;16.50;9.88;;;4.80;84.00;;;;;;5003994;28;20077;-52
2021/03/26 00:14:31;;;;;;;17.05;10.57;;;4.80;84.20;;;;;;4992416;28;20502;-51
2021/03/26 00:16:59;;;;;;;13.18;10.20;;;4.80;84.00;;;;;;5004416;28;20384;-51
2021/03/26 00:19:25;;;;;;;14.20;10.70;;;4.80;84.20;;;;;;5005209;28;20049;-55
2021/03/26 00:21:58;;;;;;;16.63;9.63;;;4.80;84.00;;;;;;5004407;28;20491;-50
2021/03/26 00:24:29;;;;;;;18.02;9.73;;;4.90;84.50;;;;;;4998437;28;20057;-55
2021/03/26 00:26:57;;;;;;;16.20;10.32;;;4.90;83.90;;;;;;5001062;28;20050;-50
2021/03/26 00:29:26;;;;;;;21.67;10.90;;;5.00;84.60;;;;;;5002228;28;20049;-49
2021/03/26 00:31:52;;;;;;;14.95;9.63;;;5.00;83.90;;;;;;5003982;28;20050;-51
2021/03/26 00:34:20;;;;;;;17.52;9.25;;;5.10;84.00;;;;;;5005002;28;20041;-50
2021/03/26 00:36:50;;;;;;;13.25;8.85;;;5.10;84.00;;;;;;5003170;28;20042;-53
2021/03/26 00:39:19;;;;;;;16.50;9.25;;;5.20;84.10;;;;;;5006421;28;20061;-53
2021/03/26 00:41:49;;;;;;;15.18;8.75;;;5.20;84.00;;;;;;5005156;28;20074;-51
2021/03/26 00:44:17;;;;;;;15.52;9.15;;;5.20;84.30;;;;;;5002642;28;20567;-52
2021/03/26 00:46:45;;;;;;;15.80;8.90;;;5.20;84.80;;;;;;5003074;28;20054;-52
2021/03/26 00:49:14;;;;;;;21.00;9.88;;;5.20;84.10;;;;;;5003558;28;20096;-52
2021/03/26 00:51:42;;;;;;;14.00;8.48;;;5.30;84.20;;;;;;5004919;28;20073;-55
2021/03/26 00:54:15;;;;;;;19.23;8.20;;;5.20;84.00;;;;;;5006339;28;20088;-53
2021/03/26 00:56:41;;;;;;;12.98;7.80;;;5.20;84.30;;;;;;5006092;28;20487;-53
2021/03/26 00:59:13;;;;;;;13.38;8.55;;;5.20;83.90;;;;;;5014496;28;20548;-50
2021/03/26 01:01:39;;;;;;;12.23;7.35;;;5.20;83.70;;;;;;5007669;28;20053;-51
2021/03/26 01:04:06;;;;;;;14.70;7.65;;;5.30;83.40;;;;;;5008080;28;20053;-51
2021/03/26 01:06:36;;;;;;;16.00;8.05;;;5.30;83.10;;;;;;5009500;28;20128;-51
2021/03/26 01:09:07;;;;;;;14.68;7.82;;;5.30;82.80;;;;;;5005974;28;20062;-54
2021/03/26 01:11:37;;;;;;;12.57;8.07;;;5.30;82.70;;;;;;5007934;28;20064;-49
2021/03/26 01:14:06;;;;;;;13.13;8.00;;;5.40;82.40;;;;;;4990047;28;20588;-50
2021/03/26 01:16:34;;;;;;;18.15;8.23;;;5.40;82.40;;;;;;5007410;28;20499;-51
2021/03/26 01:19:05;;;;;;;13.43;7.68;;;5.40;82.20;;;;;;5006761;28;20128;-49
2021/03/26 01:21:38;;;;;;;;;;;5.50;82.30;;;;;;5007458;28;20132;-50
2021/03/26 01:24:06;;;;;;;14.57;7.88;;;5.60;82.50;;;;;;5007559;28;20098;-49
2021/03/26 01:26:33;;;;;;;16.40;7.88;;;5.70;82.20;;;;;;5003573;28;20057;-48
2021/03/26 01:29:05;;;;;;;12.75;7.70;;;5.70;82.70;;;;;;5006841;28;20061;-49
2021/03/26 01:31:32;;;;;;;16.35;7.60;;;5.80;82.00;;;;;;5006809;28;20076;-50
2021/03/26 01:34:02;;;;;;;12.45;7.60;;;5.80;82.20;;;;;;5006175;28;20049;-51
2021/03/26 01:36:30;;;;;;;12.65;7.05;;;5.80;82.10;;;;;;5006416;28;20137;-53
2021/03/26 01:38:56;;;;;;;14.52;8.45;;;5.90;82.00;;;;;;4996078;28;20409;-50
2021/03/26 01:41:34;;;;;;;14.02;7.82;;;6.00;81.70;;;;;;5007506;28;20046;-49
2021/03/26 01:44:08;;;;;;;13.27;8.32;;;6.00;81.90;;;;;;5003920;28;20056;-51
2021/03/26 01:46:35;;;;;;;15.35;9.13;;;6.00;81.70;;;;;;5005285;28;20049;-49
2021/03/26 01:49:10;;;;;;;16.02;9.32;;;6.00;81.40;;;;;;5006518;28;20058;-52
2021/03/26 01:51:41;;;;;;;13.85;9.38;;;6.00;81.40;;;;;;5005042;28;20046;-50
2021/03/26 01:54:12;;;;;;;16.95;9.23;;;6.00;81.60;;;;;;5004652;28;20136;-48
2021/03/26 01:56:43;;;;;;;15.50;10.93;;;6.00;82.00;;;;;;5003416;28;20069;-50
2021/03/26 01:59:14;;;;;;;16.63;11.97;;;5.90;82.40;;;;;;5005898;28;20492;-52
2021/03/26 02:01:44;;;;;;;21.77;13.13;;;5.90;83.10;;;;;;5009354;28;20038;-48
2021/03/26 02:04:41;;;;;;;20.48;13.35;;;5.90;83.10;;;;;;5007123;28;20077;-51
2021/03/26 02:07:10;;;;;;;20.33;14.90;;;5.90;82.80;;;;;;5005285;28;20060;-52
2021/03/26 02:09:40;;;;;;;21.30;14.32;;;6.00;83.20;;;;;;5005740;28;20060;-52
2021/03/26 02:12:23;;;;;;;22.98;15.75;;;6.00;83.50;;;;;;5005243;28;20261;-51
2021/03/26 02:15:00;;;;;;;23.48;15.13;;;6.00;83.50;;;;;;5005378;28;20858;-50
2021/03/26 02:17:33;;;;;;;23.98;17.02;;;6.00;83.70;;;;;;5004672;28;20778;-50
2021/03/26 02:20:07;;;;;;;29.10;20.00;;;6.00;84.50;;;;;;5006128;28;20049;-50
2021/03/26 02:22:40;;;;;;;25.00;19.27;;;5.90;84.70;;;;;;5005394;28;20669;-50
2021/03/26 02:25:11;;;;;;;26.42;19.80;;;5.90;85.40;;;;;;5005704;28;20054;-51
2021/03/26 02:27:38;;;;;;;32.63;20.23;;;5.90;85.40;;;;;;5004347;28;20049;-48
2021/03/26 02:30:23;;;;;;;31.75;21.55;;;5.90;85.30;;;;;;4988344;28;20073;-53
2021/03/26 02:32:55;;;;;;;29.55;21.30;;;6.00;85.90;;;;;;4998425;28;20061;-53
2021/03/26 02:35:29;;;;;;;28.75;20.83;;;6.00;86.30;;;;;;5005905;28;20231;-52
2021/03/26 02:38:01;;;;;;;32.63;22.33;;;6.00;86.40;;;;;;5003745;28;20049;-51
2021/03/26 02:40:36;;;;;;;30.05;22.67;;;6.00;86.40;;;;;;5006845;28;20439;-49
2021/03/26 02:43:29;;;;;;;34.00;23.08;;;6.00;86.40;;;;;;5005149;28;20046;-49
2021/03/26 02:46:24;;;;;;;36.10;24.42;;;6.00;86.40;;;;;;5002004;28;20080;-49
2021/03/26 02:48:53;;;;;;;33.58;23.63;;;6.00;87.10;;;;;;5004474;28;20058;-50
2021/03/26 02:51:32;;;;;;;39.10;23.75;;;6.00;87.30;;;;;;5005939;28;20171;-51
2021/03/26 02:54:15;;;;;;;36.47;24.83;;;6.10;86.80;;;;;;4998314;28;20776;-51
2021/03/26 02:56:49;;;;;;;39.17;25.15;;;6.10;87.30;;;;;;5003957;28;20050;-51
2021/03/26 02:59:43;;;;;;;38.28;26.50;;;6.10;87.00;;;;;;5004168;28;20061;-50
2021/03/26 03:02:15;;;;;;;36.65;27.10;;;6.00;87.50;;;;;;4996857;28;20058;-49
2021/03/26 03:04:53;;;;;;;37.83;26.83;;;6.10;87.90;;;;;;5004463;28;20113;-49
2021/03/26 03:07:27;;;;;;;36.03;27.25;;;6.10;88.10;;;;;;5003508;28;20053;-49
2021/03/26 03:10:06;;;;;;;39.80;27.98;;;6.10;88.00;;;;;;5007567;28;20045;-51
2021/03/26 03:12:39;;;;;;;38.95;27.42;;;6.10;88.40;;;;;;5005087;28;20050;-52
2021/03/26 03:15:19;;;;;;;41.28;28.48;;;6.10;89.00;;;;;;5004202;28;20046;-51
2021/03/26 03:17:53;;;;;;;36.33;28.02;;;6.10;88.80;;;;;;5003056;28;20053;-54
2021/03/26 03:20:28;;;;;;;41.55;28.65;;;6.10;88.60;;;;;;5003141;28;20053;-53
2021/03/26 03:23:07;;;;;;;39.80;29.98;;;6.20;88.90;;;;;;5004965;28;20448;-52
2021/03/26 03:25:36;;;;;;;39.78;28.33;;;6.20;88.90;;;;;;5004252;28;20589;-51
2021/03/26 03:28:32;;;;;;;36.08;27.50;;;6.20;88.80;;;;;;5004027;28;20085;-48
2021/03/26 03:31:20;;;;;;;40.08;29.15;;;6.20;88.90;;;;;;5003606;28;20556;-55
2021/03/26 03:34:09;;;;;;;42.53;30.45;;;6.10;89.20;;;;;;5004500;28;20069;-52
2021/03/26 03:37:10;;;;;;;39.20;28.52;;;6.10;89.50;;;;;;4990939;28;20478;-48
2021/03/26 03:39:58;;;;;;;42.58;30.35;;;6.10;90.20;;;;;;5004867;28;20145;-55
2021/03/26 03:42:59;;;;;;;40.67;32.10;;;6.10;90.00;;;;;;5004616;28;20132;-53
2021/03/26 03:45:45;;;;;;;43.28;31.77;;;6.10;90.10;;;;;;4944704;29;20087;-51
2021/03/26 03:48:22;;;;;;;45.33;31.13;;;6.10;90.10;;;;;;4940502;28;20051;-50
2021/03/26 03:50:54;;;;;;;39.95;30.80;;;6.10;90.30;;;;;;4944566;29;20587;-50
2021/03/26 03:53:28;;;;;;;47.03;32.40;;;6.10;90.10;;;;;;4936147;28;20052;-53
2021/03/26 03:56:33;;;;;;;43.95;31.92;;;6.10;90.20;;;;;;4939973;28;20618;-52
2021/03/26 03:59:14;;;;;;;42.28;32.67;;;6.10;90.20;;;;;;4930525;28;20091;-50
2021/03/26 04:01:49;;;;;;;41.40;31.40;;;6.10;90.30;;;;;;4936005;28;20059;-51
2021/03/26 04:05:03;;;;;;;42.55;32.38;;;6.10;90.20;;;;;;4933314;28;20060;-49
2021/03/26 04:08:02;;;;;;;42.65;33.53;;;6.10;90.30;;;;;;4912238;29;20056;-52
2021/03/26 04:10:36;;;;;;;45.45;33.42;;;6.10;90.20;;;;;;4884874;29;20060;-50
2021/03/26 04:13:15;;;;;;;46.58;34.65;;;6.10;90.20;;;;;;4885351;29;20893;-55
2021/03/26 04:15:47;;;;;;;46.70;33.65;;;6.20;90.60;;;;;;4885303;29;20052;-49
2021/03/26 04:18:34;;;;;;;48.53;34.83;;;6.20;90.50;;;;;;4885528;29;20052;-51
2021/03/26 04:21:10;;;;;;;47.53;36.03;;;6.20;90.50;;;;;;4887286;29;20076;-52
2021/03/26 04:24:01;;;;;;;46.00;34.65;;;6.20;90.90;;;;;;4885959;29;20045;-52
2021/03/26 04:27:11;;;;;;;52.83;36.60;;;6.20;90.90;;;;;;4886298;29;20060;-49
2021/03/26 04:30:00;;;;;;;46.47;34.75;;;6.30;90.90;;;;;;4885913;29;20052;-50
2021/03/26 04:32:28;;;;;;;46.58;35.90;;;6.40;91.30;;;;;;4890686;29;20553;-51
2021/03/26 04:35:00;;;;;;;48.53;38.05;;;6.40;90.90;;;;;;4888770;29;20052;-51
2021/03/26 04:37:50;;;;;;;48.33;35.20;;;6.40;91.20;;;;;;4893732;29;20104;-51
2021/03/26 04:40:41;;;;;;;47.60;36.38;;;6.40;90.90;;;;;;4885857;29;20170;-56
2021/03/26 04:43:19;;;;;;;46.13;36.30;;;6.50;91.10;;;;;;4897399;29;20051;-49
2021/03/26 04:46:14;;;;;;;52.28;36.35;;;6.50;90.90;;;;;;4945580;28;20058;-52
2021/03/26 04:48:54;;;;;;;53.30;37.53;;;6.50;90.90;;;;;;5006955;28;20553;-51
2021/03/26 04:51:39;;;;;;;50.88;37.63;;;6.50;91.10;;;;;;5003649;28;20124;-49
2021/03/26 04:54:37;;;;;;;45.70;35.60;;;6.50;91.00;;;;;;5001439;28;20100;-52
2021/03/26 04:57:13;;;;;;;48.28;36.28;;;6.60;91.00;;;;;;5006753;28;20042;-51
2021/03/26 05:00:04;;;;;;;48.15;35.80;;;6.60;91.10;;;;;;5007349;28;20050;-53
2021/03/26 05:02:31;;;;;;;49.47;36.63;;;6.60;91.20;;;;;;5007466;28;20069;-51
2021/03/26 05:05:01;;;;;;;47.00;35.72;;;6.60;91.00;;;;;;5007937;28;20062;-50
2021/03/26 05:07:39;;;;;;;48.42;37.72;;;6.70;91.00;;;;;;5005569;28;20053;-50
2021/03/26 05:10:16;;;;;;;51.17;37.00;;;6.70;91.10;;;;;;5007100;28;20053;-51
2021/03/26 05:12:57;;;;;;;46.67;36.00;;;6.70;91.10;;;;;;5007568;28;20482;-51
2021/03/26 05:15:44;;;;;;;45.83;34.92;;;6.70;91.00;;;;;;5007106;28;20387;-49
2021/03/26 05:18:25;;;;;;;47.20;36.03;;;6.80;91.00;;;;;;5003426;28;20170;-54
2021/03/26 05:21:35;;;;;;;45.13;33.78;;;6.80;90.90;;;;;;5007133;28;20115;-50
2021/03/26 05:24:24;;;;;;;46.78;34.15;;;6.80;90.80;;;;;;4925980;29;20436;-52
2021/03/26 05:26:53;;;;;;;44.65;33.40;;;6.80;90.70;;;;;;4926220;29;20063;-53
2021/03/26 05:29:25;;;;;;;46.72;35.10;;;6.90;90.80;;;;;;4925753;29;21044;-51
2021/03/26 05:32:15;;;;;;;42.65;31.95;;;6.80;90.60;;;;;;4927242;29;20860;-53
2021/03/26 05:34:47;;;;;;;47.90;33.75;;;6.90;90.70;;;;;;4925529;29;20130;-52
2021/03/26 05:38:02;;;;;;;45.80;33.30;;;6.90;91.00;;;;;;4927632;29;20118;-48
2021/03/26 05:40:48;;;;;;;47.63;34.00;;;7.00;90.80;;;;;;4908774;29;20052;-49
2021/03/26 05:43:32;;;;;;;47.17;33.78;;;7.00;90.50;;;;;;4892478;29;20060;-49
2021/03/26 05:46:19;;;;;;;42.67;33.50;;;7.10;90.50;;;;;;4906959;29;20044;-46
2021/03/26 05:49:05;;;;;;;44.38;33.40;;;7.10;90.60;;;;;;4905207;29;20502;-47
2021/03/26 05:52:03;;;;;;;44.13;32.25;;;7.10;90.70;;;;;;4909740;29;20470;-47
2021/03/26 05:54:48;;;;;;;47.75;34.42;;;7.20;90.60;;;;;;4930073;28;20747;-46
2021/03/26 05:57:20;;;;;;;90.80;70.57;;;7.20;90.90;;;;;;4969279;28;20057;-53
2021/03/26 06:00:07;;;;;;;45.55;34.67;;;7.30;90.70;;;;;;4963066;28;20065;-55
2021/03/26 06:03:04;;;;;;;47.17;36.10;;;7.30;90.60;;;;;;4966346;28;20042;-55
2021/03/26 06:05:45;;;;;;;56.58;40.55;;;7.30;91.10;;;;;;4907712;29;20060;-54
2021/03/26 06:08:35;;;;;;;55.15;38.83;;;7.20;91.10;;;;;;4908251;29;20074;-53
2021/03/26 06:11:38;;;;;;;48.65;36.40;;;7.20;91.70;;;;;;4919881;29;20066;-57
2021/03/26 06:14:32;;;;;;;50.55;38.70;;;7.20;91.70;;;;;;4928041;29;20055;-53
2021/03/26 06:17:37;;;;;;;51.90;38.65;;;7.20;92.00;;;;;;4925917;29;20051;-50
2021/03/26 06:20:14;;;;;;;61.85;45.28;;;7.20;92.00;;;;;;4909402;29;20079;-54
2021/03/26 06:23:02;;;;;;;73.03;52.58;;;7.30;92.20;;;;;;4924491;29;20090;-54
2021/03/26 06:25:58;;;;;;;57.22;42.17;;;7.30;92.40;;;;;;4926049;29;20051;-52
2021/03/26 06:29:02;;;;;;;61.10;41.00;;;7.30;92.70;;;;;;4927946;29;20075;-56
2021/03/26 06:31:50;;;;;;;61.88;43.28;;;7.20;93.00;;;;;;4916102;29;20436;-58
2021/03/26 06:34:46;;;;;;;60.30;44.00;;;7.20;93.00;;;;;;4907597;29;20075;-59
2021/03/26 06:37:39;;;;;;;59.72;44.15;;;7.20;93.10;;;;;;4908007;29;20044;-59
2021/03/26 06:40:11;;;;;;;156.35;121.35;;;7.20;93.30;;;;;;4908324;29;20274;-50
2021/03/26 06:43:15;;;;;;;96.88;72.90;;;7.30;93.00;;;;;;4952071;28;20488;-53
2021/03/26 06:45:49;;;;;;;;;;;7.40;93.40;;;;;;4965878;28;20139;-55
2021/03/26 06:48:45;;;;;;;67.28;46.20;;;7.30;93.30;;;;;;4965280;28;19933;-53
2021/03/26 06:51:28;;;;;;;71.38;47.15;;;7.30;93.20;;;;;;4963769;28;20064;-53
2021/03/26 06:53:55;;;;;;;72.18;46.47;;;7.30;93.40;;;;;;4965508;28;20054;-54
2021/03/26 06:56:39;;;;;;;68.60;45.33;;;7.30;93.60;;;;;;4965460;28;20137;-55
2021/03/26 06:59:22;;;;;;;65.55;44.03;;;7.30;93.60;;;;;;4962649;28;20141;-48
2021/03/26 07:02:48;;;;;;;65.50;45.78;;;7.30;93.60;;;;;;4965637;28;20221;-47
2021/03/26 07:05:30;;;;;;;72.97;46.97;;;7.30;93.80;;;;;;4891494;29;20064;-46
2021/03/26 07:08:04;;;;;;;69.97;47.33;;;7.30;93.90;;;;;;4887925;29;20135;-48
2021/03/26 07:10:39;;;;;;;84.25;54.85;;;7.30;93.70;;;;;;4890889;29;20084;-46
2021/03/26 07:13:24;;;;;;;84.40;57.00;;;7.50;93.80;;;;;;4908529;29;20056;-46
2021/03/26 07:16:11;;;;;;;71.15;46.72;;;7.60;93.80;;;;;;4908229;29;20889;-45
2021/03/26 07:18:51;;;;;;;64.13;44.60;;;7.50;93.70;;;;;;4909563;29;20056;-46
2021/03/26 07:21:36;;;;;;;74.65;45.75;;;7.50;93.50;;;;;;4923229;29;20512;-45
2021/03/26 07:24:12;;;;;;;73.28;48.22;;;7.40;93.40;;;;;;4911060;29;20052;-47
2021/03/26 07:27:16;;;;;;;67.72;47.05;;;7.40;93.60;;;;;;4917106;29;20561;-45
2021/03/26 07:30:04;;;;;;;67.65;46.30;;;7.40;93.80;;;;;;4905941;29;20080;-50
2021/03/26 07:32:39;;;;;;;72.05;47.15;;;7.40;93.70;;;;;;4907732;29;20060;-46
2021/03/26 07:35:28;;;;;;;68.43;45.65;;;7.50;93.70;;;;;;4933311;28;20054;-47
2021/03/26 07:38:02;;;;;;;110.57;82.18;;;7.50;93.80;;;;;;5006367;28;20068;-49
2021/03/26 07:40:41;;;;;;;102.97;73.72;;;7.80;94.00;;;;;;5006801;28;20064;-48
2021/03/26 07:43:30;;;;;;;68.20;46.17;;;7.80;93.60;;;;;;5007419;28;20092;-46
2021/03/26 07:46:01;;;;;;;63.15;44.08;;;7.80;93.40;;;;;;5007633;28;20148;-44
2021/03/26 07:48:58;;;;;;;61.75;44.90;;;7.80;93.30;;;;;;5006989;28;20050;-44
2021/03/26 07:51:42;;;;;;;69.20;46.60;;;7.90;93.30;;;;;;4996791;28;20151;-43
2021/03/26 07:54:19;;;;;;;59.92;42.40;;;7.90;93.20;;;;;;5006012;28;20085;-45
2021/03/26 07:57:19;;;;;;;63.38;43.00;;;7.90;93.00;;;;;;5006916;28;20054;-44
2021/03/26 08:00:00;;;;;;;69.25;43.55;;;8.00;93.10;;;;;;5006400;28;20054;-46
2021/03/26 08:02:40;;;;;;;63.35;41.47;;;8.10;93.10;;;;;;5006602;28;20058;-44
2021/03/26 08:05:15;;;;;;;57.37;43.30;;;8.20;93.20;;;;;;5006669;28;20054;-45
2021/03/26 08:08:02;;;;;;;59.47;43.13;;;8.20;93.10;;;;;;5006535;28;20137;-44
2021/03/26 08:11:09;;;;;;;55.40;39.63;;;8.30;93.00;;;;;;5005903;28;20041;-48
2021/03/26 08:13:47;;;;;;;166.15;132.90;;;8.40;92.80;;;;;;4923888;29;20371;-47
2021/03/26 08:16:40;;;;;;;78.70;57.53;;;8.40;92.90;;;;;;4994236;28;20057;-45
2021/03/26 08:19:49;;;;;;;61.58;44.47;;;8.50;92.60;;;;;;5003696;28;20059;-48
2021/03/26 08:22:39;;;;;;;52.67;38.47;;;8.60;92.40;;;;;;4931366;28;20079;-48
2021/03/26 08:25:23;;;;;;;50.42;38.45;;;8.60;92.40;;;;;;4934700;28;20056;-48
2021/03/26 08:28:21;;;;;;;49.97;36.95;;;8.70;92.30;;;;;;4929968;29;20071;-47
2021/03/26 08:31:03;;;;;;;51.47;39.05;;;8.80;92.20;;;;;;4931285;29;20469;-44
2021/03/26 08:34:08;;;;;;;54.55;39.25;;;8.90;92.10;;;;;;4927589;29;20055;-47
2021/03/26 08:36:45;;;;;;;50.90;36.95;;;8.90;92.00;;;;;;4933699;29;20079;-44
2021/03/26 08:39:46;;;;;;;50.75;37.35;;;9.00;91.60;;;;;;4934941;29;20047;-45
2021/03/26 08:42:27;;;;;;;47.35;35.13;;;9.10;91.30;;;;;;4931604;29;20074;-44
2021/03/26 08:45:18;;;;;;;44.45;34.20;;;9.20;91.30;;;;;;4932126;29;20052;-43
2021/03/26 08:47:55;;;;;;;51.33;36.60;;;9.30;91.30;;;;;;4917671;29;20056;-43
2021/03/26 08:50:52;;;;;;;42.05;32.75;;;9.50;91.20;;;;;;4925815;29;20051;-44
2021/03/26 08:53:40;;;;;;;86.97;64.38;;;9.50;90.70;;;;;;4928321;29;20055;-44
2021/03/26 08:56:43;;;;;;;52.05;39.38;;;9.70;90.40;;;;;;4922645;29;20980;-44
2021/03/26 08:59:29;;;;;;;42.53;32.65;;;9.80;90.10;;;;;;4956917;28;20069;-45
2021/03/26 09:02:25;;;;;;;44.40;33.67;;;9.90;90.10;;;;;;5005574;28;20053;-44
2021/03/26 09:05:15;;;;;;;42.55;30.27;;;10.00;89.70;;;;;;5007182;28;20126;-46
2021/03/26 09:08:04;;;;;;;43.70;32.75;;;10.20;89.10;;;;;;5005200;28;20053;-42
2021/03/26 09:10:55;;;;;;;37.38;29.42;;;10.30;88.00;;;;;;5005834;28;20524;-41
2021/03/26 09:13:40;;;;;;;39.17;31.40;;;10.50;86.90;;;;;;5006759;28;20056;-44
2021/03/26 09:16:31;;;;;;;38.35;31.23;;;10.60;86.60;;;;;;5008819;28;20050;-44
2021/03/26 09:19:20;;;;;;;34.63;28.58;;;10.80;85.70;;;;;;4987852;28;20592;-43
2021/03/26 09:21:49;;;;;;;41.53;32.97;;;11.00;85.10;;;;;;5014799;28;20054;-47
2021/03/26 09:24:36;;;;;;;36.92;30.08;;;11.30;85.50;;;;;;5008569;28;20081;-43
2021/03/26 09:27:16;;;;;;;32.30;26.10;;;11.40;82.70;;;;;;5009875;28;20054;-44
2021/03/26 09:30:05;;;;;;;36.35;29.50;;;11.40;81.30;;;;;;4994189;28;20052;-44
2021/03/26 09:32:45;;;;;;;36.80;27.83;;;11.60;81.80;;;;;;5009317;28;20112;-47
2021/03/26 09:35:39;;;;;;;33.63;26.92;;;12.20;81.70;;;;;;5008494;28;20052;-45
2021/03/26 09:38:18;;;;;;;30.15;25.73;;;12.80;77.20;;;;;;5006208;28;20562;-45
2021/03/26 09:40:58;;;;;;;33.22;26.92;;;13.10;78.00;;;;;;5008928;28;20060;-46
2021/03/26 09:43:48;;;;;;;29.35;25.15;;;13.50;77.30;;;;;;5007851;28;20049;-47
2021/03/26 09:46:21;;;;;;;;;;;14.30;73.80;;;;;;5005645;28;20131;-44
2021/03/26 09:49:04;;;;;;;41.85;32.20;;;14.70;69.70;;;;;;5006802;28;20326;-47
2021/03/26 09:51:48;;;;;;;29.00;24.35;;;15.20;69.50;;;;;;5007999;28;20046;-45
2021/03/26 09:54:30;;;;;;;23.80;21.25;;;15.50;69.20;;;;;;5004461;28;20053;-48
2021/03/26 09:57:19;;;;;;;25.70;21.30;;;15.50;66.50;;;;;;5009099;28;20088;-47
2021/03/26 09:59:48;;;;;;;23.02;20.58;;;15.80;68.50;;;;;;5008289;28;20103;-45
2021/03/26 10:02:30;;;;;;;;;;;16.00;68.10;;;;;;5009480;28;20525;-49
2021/03/26 10:05:20;;;;;;;23.08;19.92;;;16.20;61.90;;;;;;5008979;28;19925;-46
2021/03/26 10:08:07;;;;;;;22.52;18.50;;;16.40;63.40;;;;;;5014356;28;20050;-47
2021/03/26 10:13:23;;;;;;;19.75;17.20;;;16.50;61.30;;;;;;5003974;28;20559;-52
2021/03/26 10:16:06;;;;;;;23.25;17.27;;;16.70;61.20;;;;;;4991005;28;20644;-51
2021/03/26 10:18:51;;;;;;;20.00;16.23;;;16.90;63.50;;;;;;5007331;28;20507;-50
2021/03/26 10:21:24;;;;;;;18.80;15.65;;;16.90;58.90;;;;;;5007655;28;20045;-49
2021/03/26 10:24:29;;;;;;;20.08;14.60;;;17.20;60.70;;;;;;5007508;28;20054;-46
2021/03/26 10:27:08;;;;;;;19.77;15.77;;;17.00;57.00;;;;;;5008741;28;20050;-49
2021/03/26 10:29:46;;;;;;;16.63;14.10;;;17.10;58.80;;;;;;5011912;28;20138;-47
2021/03/26 10:32:26;;;;;;;16.20;13.75;;;17.10;58.20;;;;;;5007721;28;20048;-53
2021/03/26 10:34:56;;;;;;;19.20;13.45;;;17.30;56.50;;;;;;5015408;28;20055;-49
2021/03/26 10:37:42;;;;;;;15.57;12.00;;;16.90;57.10;;;;;;5008024;28;20272;-48
2021/03/26 10:40:28;;;;;;;16.23;11.63;;;17.00;54.20;;;;;;5006766;28;20069;-48
2021/03/26 10:43:19;;;;;;;13.63;10.93;;;17.10;54.70;;;;;;5004739;28;20100;-48
2021/03/26 10:46:06;;;;;;;14.38;10.25;;;16.80;52.30;;;;;;5009370;28;20106;-53
2021/03/26 10:49:09;;;;;;;15.77;10.70;;;17.10;53.80;;;;;;5010659;28;20121;-53
2021/03/26 10:51:57;;;;;;;14.60;10.77;;;17.50;52.90;;;;;;5007606;28;20065;-54
2021/03/26 10:54:38;;;;;;;12.85;9.05;;;17.40;50.70;;;;;;5005656;28;20503;-57
2021/03/26 10:57:09;;;;;;;14.93;10.07;;;17.40;52.20;;;;;;5007699;28;20427;-50
2021/03/26 10:59:53;;;;;;;12.35;9.85;;;17.20;53.20;;;;;;5006912;28;20038;-50
2021/03/26 11:02:38;;;;;;;14.10;11.23;;;16.80;50.40;;;;;;5008218;28;20052;-48
2021/03/26 11:05:07;;;;;;;12.07;10.38;;;16.00;53.00;;;;;;5000220;28;20038;-51
2021/03/26 11:07:41;;;;;;;13.70;10.52;;;15.80;55.50;;;;;;5006555;28;20451;-53
2021/03/26 11:10:14;;;;;;;15.13;11.07;;;16.60;55.10;;;;;;5007485;28;20403;-49
2021/03/26 11:12:48;;;;;;;14.48;10.27;;;16.10;51.40;;;;;;5003384;28;20103;-49
2021/03/26 11:15:36;;;;;;;16.02;12.15;;;15.70;54.50;;;;;;5006309;28;20042;-49
2021/03/26 11:18:13;;;;;;;14.95;11.75;;;15.70;55.40;;;;;;4990130;28;20442;-54
2021/03/26 11:21:00;;;;;;;13.60;10.68;;;15.70;55.70;;;;;;4995287;28;20046;-51
2021/03/26 11:23:34;;;;;;;14.23;11.38;;;16.20;52.70;;;;;;4999512;28;20050;-50
2021/03/26 11:26:06;;;;;;;13.50;9.63;;;15.90;53.90;;;;;;5007628;28;20163;-48
2021/03/26 11:28:59;;;;;;;12.90;9.90;;;16.30;56.00;;;;;;5007514;28;20460;-53
2021/03/26 11:31:38;;;;;;;12.30;9.38;;;16.60;53.20;;;;;;5007280;28;20050;-48
2021/03/26 11:34:25;;;;;;;12.75;9.98;;;17.40;51.60;;;;;;5006212;28;20073;-51
2021/03/26 11:37:05;;;;;;;16.38;9.57;;;17.50;50.30;;;;;;5006979;28;20149;-49
2021/03/26 11:39:52;;;;;;;13.10;9.15;;;17.70;49.80;;;;;;5007093;28;20486;-49
2021/03/26 11:42:47;;;;;;;12.93;10.00;;;18.20;48.00;;;;;;5008043;28;20064;-50
2021/03/26 11:45:30;;;;;;;12.20;8.82;;;17.70;48.90;;;;;;5001947;28;20085;-49
2021/03/26 11:48:01;;;;;;;13.60;8.77;;;18.30;47.00;;;;;;5006468;28;20049;-48
2021/03/26 11:50:41;;;;;;;12.38;9.07;;;18.00;47.20;;;;;;5005676;28;20459;-49
2021/03/26 11:53:16;;;;;;;18.43;9.07;;;18.30;48.70;;;;;;5004189;28;20062;-51
2021/03/26 11:56:02;;;;;;;15.27;9.70;;;18.30;47.80;;;;;;5007261;28;20300;-49
2021/03/26 11:58:51;;;;;;;13.02;10.50;;;17.80;47.40;;;;;;5005073;28;20076;-50
2021/03/26 12:01:27;;;;;;;13.07;9.68;;;17.80;47.70;;;;;;5005730;28;20057;-49
2021/03/26 12:04:07;;;;;;;12.88;10.05;;;16.60;48.90;;;;;;4988626;28;20053;-50
2021/03/26 12:06:45;;;;;;;13.20;9.88;;;16.40;52.10;;;;;;5002612;28;20046;-49
2021/03/26 12:09:48;;;;;;;14.90;9.82;;;17.40;52.40;;;;;;5005287;28;20053;-50
2021/03/26 12:12:37;;;;;;;13.55;8.43;;;18.00;48.20;;;;;;5004917;28;20053;-51
2021/03/26 12:15:24;;;;;;;12.57;8.05;;;18.40;48.70;;;;;;5006136;28;20050;-48
2021/03/26 12:18:05;;;;;;;10.95;8.40;;;18.90;46.90;;;;;;5006623;28;20065;-52
2021/03/26 12:20:42;;;;;;;10.45;7.78;;;19.10;44.30;;;;;;5006286;28;20078;-51
2021/03/26 12:23:11;;;;;;;9.90;7.88;;;17.80;45.70;;;;;;5006362;28;20061;-48
2021/03/26 12:25:49;;;;;;;12.95;7.88;;;17.10;48.30;;;;;;5008452;28;20429;-51
2021/03/26 12:28:40;;;;;;;10.40;7.30;;;16.50;49.80;;;;;;4992377;28;20053;-52
2021/03/26 12:31:22;;;;;;;10.32;6.80;;;15.80;51.00;;;;;;5014128;28;20486;-52
2021/03/26 12:34:05;;;;;;;9.70;6.28;;;15.60;52.50;;;;;;4989090;28;20050;-51
2021/03/26 12:37:11;;;;;;;9.07;5.43;;;15.60;52.20;;;;;;5007122;28;20121;-49
2021/03/26 12:39:47;;;;;;;8.02;5.40;;;15.20;51.20;;;;;;5002021;28;20084;-47
2021/03/26 12:42:33;;;;;;;10.25;6.50;;;15.30;51.70;;;;;;5006409;28;20050;-50
2021/03/26 12:45:23;;;;;;;8.40;6.13;;;15.50;51.80;;;;;;5003617;28;20192;-51
2021/03/26 12:48:04;;;;;;;10.73;6.47;;;15.40;52.70;;;;;;5004966;28;20058;-51
2021/03/26 12:50:38;;;;;;;9.88;6.40;;;15.30;52.00;;;;;;5009877;28;20046;-51
2021/03/26 12:53:18;;;;;;;11.77;6.38;;;15.70;53.70;;;;;;5006773;28;20042;-49
2021/03/26 12:56:02;;;;;;;14.35;6.63;;;15.70;52.30;;;;;;4984311;28;20145;-52
2021/03/26 12:59:07;;;;;;;10.60;5.97;;;15.90;52.80;;;;;;4990417;28;20109;-49
2021/03/26 13:01:42;;;;;;;12.70;6.32;;;16.30;52.10;;;;;;4989082;28;20051;-54
2021/03/26 13:04:25;;;;;;;13.07;6.68;;;16.50;51.30;;;;;;4988893;28;20054;-49
2021/03/26 13:07:01;;;;;;;9.65;6.47;;;16.80;49.80;;;;;;4981030;28;20106;-51
2021/03/26 13:09:41;;;;;;;9.50;5.47;;;17.30;47.70;;;;;;4977433;28;20077;-53
2021/03/26 13:12:18;;;;;;;8.55;5.15;;;17.40;48.60;;;;;;4983545;28;20055;-49
2021/03/26 13:14:53;;;;;;;11.85;6.00;;;16.90;48.90;;;;;;4978289;28;21626;-47
2021/03/26 13:17:28;;;;;;;9.10;5.60;;;16.70;51.10;;;;;;4984098;28;20838;-48
2021/03/26 13:20:07;;;;;;;10.82;6.22;;;16.40;51.20;;;;;;4983003;28;20479;-56
2021/03/26 13:22:47;;;;;;;11.57;5.85;;;15.80;51.10;;;;;;4978093;28;20085;-47
2021/03/26 13:25:22;;;;;;;43.78;31.83;;;15.70;52.90;;;;;;4981652;28;20089;-51
2021/03/26 13:28:02;;;;;;;11.35;5.57;;;15.90;52.90;;;;;;4975554;28;20159;-52
2021/03/26 13:30:52;;;;;;;10.38;6.07;;;16.00;52.60;;;;;;4981949;28;20049;-54
2021/03/26 13:33:40;;;;;;;8.90;5.40;;;16.00;53.60;;;;;;4917114;29;20059;-56
2021/03/26 13:36:44;;;;;;;9.73;5.10;;;16.00;51.50;;;;;;4920165;29;20395;-54
2021/03/26 13:39:16;;;;;;;10.52;5.10;;;16.90;51.00;;;;;;4917497;29;20146;-52
2021/03/26 13:42:01;;;;;;;6.93;4.47;;;17.40;48.90;;;;;;4923774;29;20139;-53
2021/03/26 13:44:31;;;;;;;12.88;8.88;;;16.50;47.70;;;;;;4916555;29;20056;-56
2021/03/26 13:47:07;;;;;;;28.13;22.08;;;16.20;50.40;;;;;;4911705;29;20056;-53
2021/03/26 13:49:36;;;;;;;11.45;6.18;;;15.80;49.60;;;;;;4918420;29;20607;-51
2021/03/26 13:52:23;;;;;;;10.98;6.57;;;15.40;50.40;;;;;;4915986;29;20048;-50
2021/03/26 13:55:01;;;;;;;10.02;5.57;;;15.30;51.40;;;;;;4910519;29;20114;-52